Autoridad de Aeronautica Civil de Panamá


metar




ESTACIONES DESCRIPCION
MPTO (M) 201100Z VRB02KT 9999 FEW018 SCT070 25/23 Q1009 RWY DAMP NOSIG=  
MPBO (M)  
MPCH (M)  
MPSA (M)=  
MPCE (M)  
MPPN (M)=  
MPSM (M) 201100Z E35008KT 9999 BKN030 27/22 Q1009  
MPJE (M)  
MPPA (M) 200300Z 03007KT 9999 FEW020 27/23 Q1012 =  
MPMG (M) 201100Z 34006KT 9999 FEW018 SCT080 25/23 Q1010 RWY DAMP NOSIG  
MPDA (M)=  
MPVR (M)=  
MPWN FUERA DE SERVICIO  
MPOA (M)  
MPMF (M)  
MPEJ (M)=  


 

CLIMATICAS

MPTO

19 FEBRERO 2020

 

PCPN (mm)

T° MAX

T° MIN

VIENTO MAX (KT)

HORA

VIENTO PREDOM (KT)

0.00

32.7

23.8

35014KT

1900Z

N 06KT

CLIMATICAS

MPMG

19- FEBRERO -2020

PCPN (mm)

T° MAX

T° MIN

VIENTO MAX (KT)

HORA

VIENTO PREDOM (KT)-

0.0

32.7

26.1

34016G28KT

1840Z

NW

 



Contador: 14435